createdAt,value
2022-09-16T00:00:02.774Z,0.00
2022-09-16T00:01:02.891Z,0.00
2022-09-16T00:02:03.467Z,0.00
2022-09-16T00:03:03.355Z,0.00
2022-09-16T00:04:03.072Z,0.00
2022-09-16T00:05:02.902Z,0.00
2022-09-16T00:06:03.337Z,0.00
2022-09-16T00:07:03.845Z,0.00
2022-09-16T00:08:03.373Z,0.00
2022-09-16T00:09:03.201Z,0.00
2022-09-16T00:10:03.664Z,0.00
2022-09-16T00:11:03.476Z,0.00
2022-09-16T00:12:02.742Z,0.00
2022-09-16T00:13:02.436Z,0.00
2022-09-16T00:14:02.779Z,0.00
2022-09-16T00:15:02.624Z,0.00
2022-09-16T00:16:02.470Z,0.00
2022-09-16T00:17:03.515Z,0.00
2022-09-16T00:18:03.033Z,0.00
2022-09-16T00:19:03.540Z,0.00
2022-09-16T00:20:03.188Z,0.00
2022-09-16T00:21:03.086Z,0.00
2022-09-16T00:22:02.900Z,0.00
2022-09-16T00:23:02.676Z,0.00
2022-09-16T00:24:02.701Z,0.00
2022-09-16T00:25:03.169Z,0.00
2022-09-16T00:26:02.570Z,0.00
2022-09-16T00:27:03.387Z,0.00
2022-09-16T00:28:03.429Z,0.00
2022-09-16T00:29:03.168Z,0.00
2022-09-16T00:30:03.033Z,0.00
2022-09-16T00:31:03.700Z,0.00
2022-09-16T00:32:03.395Z,0.00
2022-09-16T00:33:03.673Z,0.00
2022-09-16T00:34:03.700Z,0.00
2022-09-16T00:35:03.383Z,0.00
2022-09-16T00:36:03.691Z,0.00
2022-09-16T00:37:03.023Z,0.00
2022-09-16T00:38:02.447Z,0.00
2022-09-16T00:39:02.531Z,0.00
2022-09-16T00:40:02.708Z,0.00
2022-09-16T00:41:02.514Z,0.00
2022-09-16T00:42:03.470Z,0.00
2022-09-16T00:43:03.226Z,0.00
2022-09-16T00:44:03.100Z,0.00
2022-09-16T00:45:02.933Z,0.00
2022-09-16T00:46:03.558Z,0.00
2022-09-16T00:47:03.222Z,0.00
2022-09-16T00:48:03.108Z,0.00
2022-09-16T00:49:03.291Z,0.00
2022-09-16T00:50:03.240Z,0.00
2022-09-16T00:51:03.005Z,0.00
2022-09-16T00:52:03.433Z,0.00
2022-09-16T00:53:03.837Z,0.00
2022-09-16T00:54:03.401Z,0.00
2022-09-16T00:55:03.504Z,0.00
2022-09-16T00:56:03.603Z,0.00
2022-09-16T00:57:03.140Z,0.00
2022-09-16T00:58:03.326Z,0.00
2022-09-16T00:59:03.126Z,0.00
2022-09-16T01:00:03.162Z,0.00
2022-09-16T01:01:03.147Z,0.00
2022-09-16T01:02:02.759Z,0.00
2022-09-16T01:03:02.667Z,0.00
2022-09-16T01:04:03.178Z,0.00
2022-09-16T01:05:02.642Z,0.00
2022-09-16T01:06:02.799Z,0.00
2022-09-16T01:07:03.048Z,0.00
2022-09-16T01:08:02.833Z,0.00
2022-09-16T01:09:03.170Z,0.00
2022-09-16T01:10:02.747Z,0.00
2022-09-16T01:11:02.790Z,0.00
2022-09-16T01:12:02.387Z,0.00
2022-09-16T01:13:02.496Z,0.00
2022-09-16T01:14:02.272Z,0.00
2022-09-16T01:15:02.142Z,0.00
2022-09-16T01:16:02.502Z,0.00
2022-09-16T01:17:02.768Z,0.00
2022-09-16T01:18:02.324Z,0.00
2022-09-16T01:19:02.436Z,0.00
2022-09-16T01:20:02.233Z,0.00
2022-09-16T01:21:02.666Z,0.00
2022-09-16T01:22:03.189Z,0.00
2022-09-16T01:23:03.475Z,0.00
2022-09-16T01:24:03.141Z,0.00
2022-09-16T01:25:02.932Z,0.00
2022-09-16T01:26:02.983Z,0.00
2022-09-16T01:27:02.625Z,0.00
2022-09-16T01:28:02.462Z,0.00
2022-09-16T01:29:02.863Z,0.00
2022-09-16T01:30:02.846Z,0.00
2022-09-16T01:31:02.551Z,0.00
2022-09-16T01:32:02.893Z,0.00
2022-09-16T01:33:02.897Z,0.00
2022-09-16T01:34:02.526Z,0.00
2022-09-16T01:35:02.298Z,0.00
2022-09-16T01:36:02.791Z,0.00
2022-09-16T01:37:02.772Z,0.00
2022-09-16T01:38:02.634Z,0.00
2022-09-16T01:39:02.965Z,0.00
2022-09-16T01:40:02.831Z,0.00
2022-09-16T01:41:02.767Z,0.00
2022-09-16T01:42:03.503Z,0.00
2022-09-16T01:43:03.062Z,0.00
2022-09-16T01:44:03.530Z,0.00
2022-09-16T01:45:03.063Z,0.00
2022-09-16T01:46:03.617Z,0.00
2022-09-16T01:47:02.799Z,0.00
2022-09-16T01:48:02.531Z,0.00
2022-09-16T01:49:03.001Z,0.00
2022-09-16T01:50:02.604Z,0.00
2022-09-16T01:51:02.475Z,0.00
2022-09-16T01:52:03.196Z,0.00
2022-09-16T01:53:03.104Z,0.00
2022-09-16T01:54:02.991Z,0.00
2022-09-16T01:55:03.203Z,0.00
2022-09-16T01:56:02.598Z,0.00
2022-09-16T01:57:02.919Z,0.00
2022-09-16T01:58:02.880Z,0.00
2022-09-16T01:59:03.359Z,0.00
2022-09-16T02:00:02.859Z,0.00
2022-09-16T02:01:02.698Z,0.00
2022-09-16T02:02:02.768Z,0.00
2022-09-16T02:03:02.601Z,0.00
2022-09-16T02:04:02.265Z,0.00
2022-09-16T02:05:02.743Z,0.00
2022-09-16T02:06:02.398Z,0.00
2022-09-16T02:07:02.976Z,0.00
2022-09-16T02:08:02.523Z,0.00
2022-09-16T02:09:03.029Z,0.00
2022-09-16T02:10:02.806Z,0.00
2022-09-16T02:11:02.534Z,0.00
2022-09-16T02:12:02.799Z,0.00
2022-09-16T02:13:02.657Z,0.00
2022-09-16T02:14:02.903Z,0.00
2022-09-16T02:15:03.011Z,0.00
2022-09-16T02:16:02.887Z,0.00
2022-09-16T02:17:02.491Z,0.00
2022-09-16T02:18:02.229Z,0.00
2022-09-16T02:19:01.960Z,0.00
2022-09-16T02:20:02.713Z,0.00
2022-09-16T02:21:02.565Z,0.00
2022-09-16T02:22:02.837Z,0.00
2022-09-16T02:23:02.576Z,0.00
2022-09-16T02:24:02.385Z,0.00
2022-09-16T02:25:02.320Z,0.00
2022-09-16T02:26:02.874Z,0.00
2022-09-16T02:27:03.167Z,0.00
2022-09-16T02:28:02.861Z,0.00
2022-09-16T02:29:02.615Z,0.00
2022-09-16T02:30:03.072Z,0.00
2022-09-16T02:31:03.304Z,0.00
2022-09-16T02:32:02.638Z,0.00
2022-09-16T02:33:02.404Z,0.00
2022-09-16T02:34:02.161Z,0.00
2022-09-16T02:35:02.129Z,0.00
2022-09-16T02:36:02.694Z,0.00
2022-09-16T02:37:02.974Z,0.00
2022-09-16T02:38:02.579Z,0.00
2022-09-16T02:39:02.557Z,0.00
2022-09-16T02:40:02.512Z,0.00
2022-09-16T02:41:02.525Z,0.00
2022-09-16T02:42:03.000Z,0.00
2022-09-16T02:43:02.770Z,0.00
2022-09-16T02:44:02.834Z,0.00
2022-09-16T02:45:02.673Z,0.00
2022-09-16T02:46:03.030Z,0.00
2022-09-16T02:47:02.212Z,0.00
2022-09-16T02:48:02.336Z,0.00
2022-09-16T02:49:02.133Z,0.00
2022-09-16T02:50:01.900Z,0.00
2022-09-16T02:51:01.923Z,0.00
2022-09-16T02:52:02.793Z,0.00
2022-09-16T02:53:02.589Z,0.00
2022-09-16T02:54:03.049Z,0.00
2022-09-16T02:55:02.820Z,0.00
2022-09-16T02:56:02.578Z,0.00
2022-09-16T02:57:02.770Z,0.00
2022-09-16T02:58:02.300Z,0.00
2022-09-16T02:59:02.767Z,0.00
2022-09-16T03:00:02.751Z,0.00
2022-09-16T03:01:02.361Z,0.00
2022-09-16T03:02:02.604Z,0.00
2022-09-16T03:03:02.207Z,0.00
2022-09-16T03:04:02.206Z,0.00
2022-09-16T03:05:02.636Z,0.00
2022-09-16T03:06:02.198Z,0.00
2022-09-16T03:07:01.936Z,0.00
2022-09-16T03:08:02.277Z,0.00
2022-09-16T03:09:02.070Z,0.00
2022-09-16T03:10:01.913Z,0.00
2022-09-16T03:11:02.360Z,0.00
2022-09-16T03:12:01.978Z,0.00
2022-09-16T03:13:02.275Z,0.00
2022-09-16T03:14:02.077Z,0.00
2022-09-16T03:15:01.951Z,0.00
2022-09-16T03:16:02.193Z,0.00
2022-09-16T03:17:02.518Z,0.00
2022-09-16T03:18:02.505Z,0.00
2022-09-16T03:19:02.495Z,0.00
2022-09-16T03:20:02.268Z,0.00
2022-09-16T03:21:02.020Z,0.00
2022-09-16T03:22:02.588Z,0.00
2022-09-16T03:23:02.914Z,0.00
2022-09-16T03:24:02.715Z,0.00
2022-09-16T03:25:03.065Z,0.00
2022-09-16T03:26:02.713Z,0.00
2022-09-16T03:27:02.793Z,0.00
2022-09-16T03:28:02.426Z,0.00
2022-09-16T03:29:02.811Z,0.00
2022-09-16T03:30:02.599Z,0.00
2022-09-16T03:31:02.826Z,0.00
2022-09-16T03:32:03.057Z,0.00
2022-09-16T03:33:02.624Z,0.00
2022-09-16T03:34:02.524Z,0.00
2022-09-16T03:35:02.879Z,0.00
2022-09-16T03:36:02.672Z,0.00
2022-09-16T03:37:02.309Z,0.00
2022-09-16T03:38:02.302Z,0.00
2022-09-16T03:39:02.701Z,0.00
2022-09-16T03:40:02.592Z,0.00
2022-09-16T03:41:02.119Z,0.00
2022-09-16T03:42:03.015Z,0.00
2022-09-16T03:43:02.812Z,0.00
2022-09-16T03:44:04.157Z,0.00
2022-09-16T03:45:03.164Z,0.00
2022-09-16T03:46:02.720Z,0.00
2022-09-16T03:47:02.314Z,0.00
2022-09-16T03:48:02.342Z,0.00
2022-09-16T03:49:02.462Z,0.00
2022-09-16T03:50:02.664Z,0.00
2022-09-16T03:51:02.710Z,0.00
2022-09-16T03:52:01.942Z,0.00
2022-09-16T03:53:01.897Z,0.00
2022-09-16T03:54:01.728Z,0.00
2022-09-16T03:55:02.291Z,0.00
2022-09-16T03:56:02.208Z,0.00
2022-09-16T03:57:02.613Z,0.00
2022-09-16T03:58:02.456Z,0.00
2022-09-16T03:59:02.751Z,0.00
2022-09-16T04:00:02.564Z,0.00
2022-09-16T04:01:03.066Z,0.00
2022-09-16T04:02:03.420Z,0.00
2022-09-16T04:03:03.783Z,0.00
2022-09-16T04:04:03.401Z,0.00
2022-09-16T04:05:03.209Z,0.00
2022-09-16T04:06:03.685Z,0.00
2022-09-16T04:07:03.080Z,0.00
2022-09-16T04:08:02.894Z,0.00
2022-09-16T04:09:03.049Z,0.00
2022-09-16T04:10:02.850Z,0.00
2022-09-16T04:11:02.724Z,0.00
2022-09-16T04:12:03.187Z,0.00
2022-09-16T04:13:02.961Z,0.00
2022-09-16T04:14:03.288Z,0.00
2022-09-16T04:15:03.297Z,0.00
2022-09-16T04:16:03.193Z,0.00
2022-09-16T04:17:03.565Z,0.00
2022-09-16T04:18:03.238Z,0.00
2022-09-16T04:19:03.249Z,0.00
2022-09-16T04:20:03.761Z,0.00
2022-09-16T04:21:03.567Z,0.00
2022-09-16T04:22:03.127Z,0.00
2022-09-16T04:23:03.055Z,0.00
2022-09-16T04:24:02.932Z,0.00
2022-09-16T04:25:03.133Z,0.00
2022-09-16T04:26:02.977Z,0.00
2022-09-16T04:27:03.418Z,0.00
2022-09-16T04:28:03.637Z,0.00
2022-09-16T04:29:03.511Z,0.00
2022-09-16T04:30:03.695Z,0.00
2022-09-16T04:31:03.687Z,0.00
2022-09-16T04:32:03.565Z,0.00
2022-09-16T04:33:03.330Z,0.00
2022-09-16T04:34:03.821Z,0.00
2022-09-16T04:35:03.442Z,0.00
2022-09-16T04:36:03.463Z,0.00
2022-09-16T04:37:02.852Z,0.00
2022-09-16T04:38:02.732Z,0.00
2022-09-16T04:39:02.590Z,0.00
2022-09-16T04:40:04.932Z,0.00
2022-09-16T04:41:02.903Z,0.00
2022-09-16T04:42:03.097Z,4.00
2022-09-16T04:43:03.366Z,4.00
2022-09-16T04:44:03.235Z,4.00
2022-09-16T04:45:03.513Z,0.00
2022-09-16T04:46:03.405Z,4.00
2022-09-16T04:47:03.027Z,4.00
2022-09-16T04:48:02.846Z,4.00
2022-09-16T04:49:02.906Z,8.00
2022-09-16T04:50:02.719Z,12.00
2022-09-16T04:51:02.571Z,8.00
2022-09-16T04:52:02.995Z,12.00
2022-09-16T04:53:02.852Z,8.00
2022-09-16T04:54:02.744Z,12.00
2022-09-16T04:55:02.840Z,16.00
2022-09-16T04:56:02.820Z,20.00
2022-09-16T04:57:02.898Z,28.00
2022-09-16T04:58:03.526Z,32.00
2022-09-16T04:59:03.117Z,36.00
2022-09-16T05:00:03.067Z,48.00
2022-09-16T05:01:03.391Z,52.00
2022-09-16T05:02:03.090Z,64.00
2022-09-16T05:03:03.661Z,72.00
2022-09-16T05:04:02.884Z,88.00
2022-09-16T05:05:03.437Z,100.00
2022-09-16T05:06:03.390Z,112.00
2022-09-16T05:07:02.911Z,124.00
2022-09-16T05:08:02.708Z,132.00
2022-09-16T05:09:02.514Z,132.00
2022-09-16T05:10:02.559Z,132.00
2022-09-16T05:11:02.485Z,128.00
2022-09-16T05:12:03.139Z,128.00
2022-09-16T05:13:02.720Z,132.00
2022-09-16T05:14:02.713Z,144.00
2022-09-16T05:15:02.541Z,168.00
2022-09-16T05:16:03.056Z,200.00
2022-09-16T05:17:03.685Z,240.00
2022-09-16T05:18:03.526Z,276.00
2022-09-16T05:19:03.620Z,312.00
2022-09-16T05:20:03.590Z,340.00
2022-09-16T05:21:03.109Z,368.00
2022-09-16T05:22:03.792Z,396.00
2022-09-16T05:23:03.687Z,428.00
2022-09-16T05:24:03.283Z,460.00
2022-09-16T05:25:03.530Z,484.00
2022-09-16T05:26:03.436Z,520.00
2022-09-16T05:27:02.993Z,556.00
2022-09-16T05:28:03.028Z,584.00
2022-09-16T05:29:02.724Z,616.00
2022-09-16T05:30:02.667Z,632.00
2022-09-16T05:31:02.838Z,660.00
2022-09-16T05:32:02.747Z,688.00
2022-09-16T05:33:03.104Z,704.00
2022-09-16T05:34:02.712Z,736.00
2022-09-16T05:35:02.836Z,784.00
2022-09-16T05:36:02.877Z,860.00
2022-09-16T05:37:02.816Z,892.00
2022-09-16T05:38:03.360Z,884.00
2022-09-16T05:40:03.125Z,944.00
2022-09-16T05:41:03.085Z,960.00
2022-09-16T05:42:03.375Z,992.00
2022-09-16T05:43:03.177Z,1024.00
2022-09-16T05:44:03.192Z,1092.00
2022-09-16T05:45:03.196Z,1192.00
2022-09-16T05:46:03.162Z,1316.00
2022-09-16T05:47:03.530Z,1464.00
2022-09-16T05:48:03.975Z,1640.00
2022-09-16T05:49:03.694Z,1760.00
2022-09-16T05:50:03.475Z,1812.00
2022-09-16T05:51:03.545Z,1812.00
2022-09-16T05:52:02.672Z,1792.00
2022-09-16T05:53:02.577Z,1740.00
2022-09-16T05:54:03.042Z,1676.00
2022-09-16T05:55:02.569Z,1628.00
2022-09-16T05:56:02.616Z,1628.00
2022-09-16T05:57:06.828Z,1644.00
2022-09-16T05:58:02.813Z,1672.00
2022-09-16T05:59:02.862Z,1672.00
2022-09-16T06:00:03.276Z,1644.00
2022-09-16T06:01:03.244Z,1584.00
2022-09-16T06:02:02.702Z,1544.00
2022-09-16T06:03:02.485Z,1580.00
2022-09-16T06:04:03.145Z,1640.00
2022-09-16T06:05:02.899Z,1752.00
2022-09-16T06:06:03.000Z,1876.00
2022-09-16T06:07:03.331Z,2072.00
2022-09-16T06:08:03.402Z,2400.00
2022-09-16T06:09:02.793Z,2892.00
2022-09-16T06:10:02.939Z,3052.00
2022-09-16T06:11:02.886Z,2936.00
2022-09-16T06:12:02.646Z,2840.00
2022-09-16T06:13:02.528Z,2960.00
2022-09-16T06:14:02.498Z,3112.00
2022-09-16T06:15:03.013Z,3452.00
2022-09-16T06:16:03.240Z,3748.00
2022-09-16T06:17:03.250Z,3924.00
2022-09-16T06:18:06.487Z,3796.00
2022-09-16T06:19:03.486Z,3576.00
2022-09-16T06:20:03.033Z,3452.00
2022-09-16T06:21:03.456Z,3548.00
2022-09-16T06:22:02.443Z,3800.00
2022-09-16T06:23:02.411Z,4076.00
2022-09-16T06:24:02.365Z,4388.00
2022-09-16T06:25:02.351Z,4728.00
2022-09-16T06:26:02.542Z,5012.00
2022-09-16T06:27:02.542Z,5284.00
2022-09-16T06:28:02.729Z,5488.00
2022-09-16T06:29:02.855Z,6168.00
2022-09-16T06:30:02.869Z,4912.00
2022-09-16T06:31:02.611Z,5056.00
2022-09-16T06:32:02.718Z,4720.00
2022-09-16T06:33:03.151Z,8724.00
2022-09-16T06:34:02.865Z,5552.00
2022-09-16T06:35:02.538Z,5700.00
2022-09-16T06:36:02.849Z,8416.00
2022-09-16T06:37:02.846Z,5736.00
2022-09-16T06:38:02.765Z,7984.00
2022-09-16T06:39:02.725Z,5736.00
2022-09-16T06:40:02.888Z,5580.00
2022-09-16T06:41:02.702Z,6716.00
2022-09-16T06:42:02.555Z,8696.00
2022-09-16T06:43:02.876Z,9176.00
2022-09-16T06:44:02.687Z,9304.00
2022-09-16T06:45:02.600Z,9732.00
2022-09-16T06:46:02.317Z,7184.00
2022-09-16T06:47:02.929Z,6152.00
2022-09-16T06:48:02.611Z,5420.00
2022-09-16T06:49:06.215Z,5192.00
2022-09-16T06:50:03.174Z,4844.00
2022-09-16T06:51:03.307Z,4588.00
2022-09-16T06:52:03.227Z,5804.00
2022-09-16T06:53:03.072Z,4972.00
2022-09-16T06:54:03.515Z,4156.00
2022-09-16T06:55:03.134Z,4200.00
2022-09-16T06:56:03.103Z,4416.00
2022-09-16T06:57:02.730Z,4648.00
2022-09-16T06:58:02.831Z,4936.00
2022-09-16T06:59:02.812Z,5080.00
2022-09-16T07:00:02.924Z,5032.00
2022-09-16T07:01:02.771Z,7704.00
2022-09-16T07:02:02.539Z,4828.00
2022-09-16T07:03:02.948Z,5584.00
2022-09-16T07:04:02.942Z,6228.00
2022-09-16T07:05:02.789Z,6308.00
2022-09-16T07:06:02.789Z,7336.00
2022-09-16T07:07:09.794Z,10272.00
2022-09-16T07:08:02.567Z,8744.00
2022-09-16T07:09:02.587Z,9240.00
2022-09-16T07:10:02.789Z,10276.00
2022-09-16T07:11:02.190Z,9560.00
2022-09-16T07:12:02.684Z,8316.00
2022-09-16T07:13:02.646Z,6180.00
2022-09-16T07:14:02.521Z,4868.00
2022-09-16T07:15:02.604Z,4076.00
2022-09-16T07:16:12.876Z,4092.00
2022-09-16T07:17:02.518Z,4372.00
2022-09-16T07:18:02.025Z,4352.00
2022-09-16T07:19:02.282Z,4584.00
2022-09-16T07:20:02.186Z,5336.00
2022-09-16T07:21:02.481Z,5604.00
2022-09-16T07:22:02.684Z,5688.00
2022-09-16T07:23:02.464Z,6076.00
2022-09-16T07:24:02.823Z,5672.00
2022-09-16T07:25:02.197Z,5184.00
2022-09-16T07:26:02.287Z,5004.00
2022-09-16T07:27:02.970Z,5064.00
2022-09-16T07:28:03.016Z,5184.00
2022-09-16T07:29:02.795Z,5340.00
2022-09-16T07:30:08.197Z,5320.00
2022-09-16T07:31:03.122Z,4852.00
2022-09-16T07:32:03.050Z,5204.00
2022-09-16T07:33:03.196Z,5140.00
2022-09-16T07:34:04.648Z,5164.00
2022-09-16T07:35:02.583Z,5164.00
2022-09-16T07:36:02.573Z,5080.00
2022-09-16T07:37:03.379Z,5044.00
2022-09-16T07:38:03.009Z,5004.00
2022-09-16T07:39:03.014Z,4852.00
2022-09-16T07:40:03.363Z,4164.00
2022-09-16T07:41:03.004Z,4088.00
2022-09-16T07:42:05.876Z,4224.00
2022-09-16T07:43:02.763Z,3592.00
2022-09-16T07:44:02.930Z,3108.00
2022-09-16T07:45:02.660Z,2816.00
2022-09-16T07:46:02.578Z,2568.00
2022-09-16T07:47:02.711Z,2504.00
2022-09-16T07:48:02.841Z,2820.00
2022-09-16T07:49:03.140Z,3296.00
2022-09-16T07:50:03.083Z,2860.00
2022-09-16T07:51:02.713Z,3120.00
2022-09-16T07:52:03.236Z,3324.00
2022-09-16T07:53:02.725Z,3548.00
2022-09-16T07:54:02.720Z,3680.00
2022-09-16T07:55:02.746Z,3056.00
2022-09-16T07:56:02.869Z,2364.00
2022-09-16T07:57:02.919Z,2040.00
2022-09-16T07:58:03.008Z,2212.00
2022-09-16T07:59:02.601Z,2764.00
2022-09-16T08:00:02.776Z,3348.00
2022-09-16T08:01:04.826Z,3724.00
2022-09-16T08:02:02.317Z,3596.00
2022-09-16T08:03:01.904Z,3788.00
2022-09-16T08:04:02.164Z,4600.00
2022-09-16T08:05:02.168Z,5072.00
2022-09-16T08:06:02.072Z,5740.00
2022-09-16T08:07:02.320Z,6076.00
2022-09-16T08:08:02.394Z,7784.00
2022-09-16T08:09:15.270Z,7132.00
2022-09-16T08:10:02.548Z,7276.00
2022-09-16T08:11:02.283Z,7556.00
2022-09-16T08:12:02.579Z,7612.00
2022-09-16T08:13:02.086Z,6672.00
2022-09-16T08:14:02.031Z,6224.00
2022-09-16T08:15:02.356Z,6524.00
2022-09-16T08:16:02.356Z,7844.00
2022-09-16T08:17:02.974Z,8016.00
2022-09-16T08:18:02.311Z,7988.00
2022-09-16T08:19:02.886Z,8172.00
2022-09-16T08:20:02.608Z,8092.00
2022-09-16T08:21:02.345Z,7388.00
2022-09-16T08:22:02.730Z,6976.00
2022-09-16T08:23:02.567Z,6592.00
2022-09-16T08:24:02.507Z,7000.00
2022-09-16T08:25:02.582Z,7944.00
2022-09-16T08:26:02.486Z,13644.00
2022-09-16T08:27:02.819Z,11260.00
2022-09-16T08:28:02.555Z,10972.00
2022-09-16T08:29:10.196Z,10588.00
2022-09-16T08:30:02.531Z,10548.00
2022-09-16T08:31:03.024Z,10908.00
2022-09-16T08:32:02.098Z,9516.00
2022-09-16T08:33:02.180Z,10152.00
2022-09-16T08:34:02.071Z,10976.00
2022-09-16T08:35:02.150Z,17632.00
2022-09-16T08:36:02.230Z,17536.00
2022-09-16T08:37:02.045Z,17184.00
2022-09-16T08:38:02.021Z,21216.00
2022-09-16T08:39:02.417Z,11724.00
2022-09-16T08:40:02.363Z,11740.00
2022-09-16T08:41:02.452Z,25632.00
2022-09-16T08:42:02.621Z,12956.00
2022-09-16T08:43:02.653Z,22816.00
2022-09-16T08:44:02.593Z,22976.00
2022-09-16T08:45:02.880Z,18560.00
2022-09-16T08:46:02.644Z,6872.00
2022-09-16T08:47:01.834Z,7208.00
2022-09-16T08:48:01.973Z,8232.00
2022-09-16T08:49:02.019Z,9120.00
2022-09-16T08:50:01.899Z,10124.00
2022-09-16T08:51:02.002Z,11300.00
2022-09-16T08:52:02.201Z,10628.00
2022-09-16T08:53:02.312Z,8616.00
2022-09-16T08:54:02.356Z,8528.00
2022-09-16T08:55:02.444Z,9128.00
2022-09-16T08:56:02.300Z,15264.00
2022-09-16T08:57:02.330Z,25120.00
2022-09-16T08:58:02.375Z,25280.00
2022-09-16T08:59:02.440Z,27872.00
2022-09-16T09:00:02.282Z,28000.00
2022-09-16T09:01:02.430Z,29184.00
2022-09-16T09:02:08.861Z,27712.00
2022-09-16T09:03:03.310Z,23904.00
2022-09-16T09:04:03.609Z,14100.00
2022-09-16T09:05:03.291Z,9116.00
2022-09-16T09:06:03.431Z,7256.00
2022-09-16T09:07:02.519Z,8272.00
2022-09-16T09:08:02.671Z,10112.00
2022-09-16T09:09:02.510Z,5864.00
2022-09-16T09:10:05.903Z,5952.00
2022-09-16T09:11:02.405Z,6372.00
2022-09-16T09:12:03.021Z,6588.00
2022-09-16T09:13:03.656Z,5896.00
2022-09-16T09:14:03.515Z,5584.00
2022-09-16T09:15:03.045Z,5224.00
2022-09-16T09:16:03.061Z,5404.00
2022-09-16T09:17:03.077Z,6368.00
2022-09-16T09:18:03.019Z,8280.00
2022-09-16T09:19:03.089Z,8048.00
2022-09-16T09:20:03.550Z,9488.00
2022-09-16T09:21:03.208Z,11056.00
2022-09-16T09:22:02.643Z,11132.00
2022-09-16T09:23:02.690Z,10784.00
2022-09-16T09:24:02.840Z,12496.00
2022-09-16T09:25:02.961Z,13176.00
2022-09-16T09:26:02.792Z,13036.00
2022-09-16T09:27:02.801Z,15232.00
2022-09-16T09:28:03.043Z,12008.00
2022-09-16T09:29:03.090Z,9900.00
2022-09-16T09:30:03.148Z,8532.00
2022-09-16T09:31:05.205Z,8296.00
2022-09-16T09:32:03.310Z,7372.00
2022-09-16T09:33:03.327Z,6236.00
2022-09-16T09:34:03.216Z,6280.00
2022-09-16T09:35:03.554Z,7696.00
2022-09-16T09:36:03.486Z,8336.00
2022-09-16T09:37:02.924Z,9056.00
2022-09-16T09:38:03.325Z,9060.00
2022-09-16T09:39:03.297Z,9992.00
2022-09-16T09:40:02.945Z,11508.00
2022-09-16T09:41:03.075Z,12988.00
2022-09-16T09:42:03.402Z,21248.00
2022-09-16T09:43:03.435Z,17216.00
2022-09-16T09:44:03.212Z,19264.00
2022-09-16T09:45:03.154Z,17248.00
2022-09-16T09:46:03.207Z,15648.00
2022-09-16T09:47:02.866Z,16832.00
2022-09-16T09:48:02.935Z,15424.00
2022-09-16T09:49:02.775Z,14196.00
2022-09-16T09:50:03.099Z,13696.00
2022-09-16T09:51:03.016Z,12992.00
2022-09-16T09:52:02.690Z,10976.00
2022-09-16T09:53:02.363Z,12352.00
2022-09-16T09:54:02.454Z,7672.00
2022-09-16T09:55:02.336Z,8488.00
2022-09-16T09:56:02.850Z,18528.00
2022-09-16T09:57:03.269Z,15552.00
2022-09-16T09:58:03.204Z,6004.00
2022-09-16T09:59:03.187Z,5620.00
2022-09-16T10:00:03.551Z,12032.00
2022-09-16T10:01:02.991Z,20704.00
2022-09-16T10:02:02.759Z,10472.00
2022-09-16T10:03:02.652Z,16096.00
2022-09-16T10:04:02.658Z,8888.00
2022-09-16T10:05:02.588Z,10684.00
2022-09-16T10:06:02.593Z,15232.00
2022-09-16T10:08:02.897Z,18464.00
2022-09-16T10:09:02.851Z,14416.00
2022-09-16T10:10:02.771Z,18368.00
2022-09-16T10:11:02.645Z,19104.00
2022-09-16T10:12:03.617Z,19424.00
2022-09-16T10:13:03.628Z,17312.00
2022-09-16T10:14:03.659Z,16480.00
2022-09-16T10:15:03.627Z,15136.00
2022-09-16T10:16:03.307Z,13916.00
2022-09-16T10:17:03.248Z,13204.00
2022-09-16T10:18:03.420Z,12932.00
2022-09-16T10:19:03.040Z,13036.00
2022-09-16T10:20:03.309Z,12664.00
2022-09-16T10:21:02.923Z,11748.00
2022-09-16T10:22:03.506Z,11392.00
2022-09-16T10:23:03.089Z,11504.00
2022-09-16T10:24:03.815Z,10756.00
2022-09-16T10:25:03.633Z,9812.00
2022-09-16T10:26:03.457Z,8984.00
2022-09-16T10:27:03.191Z,9368.00
2022-09-16T10:28:03.038Z,10668.00
2022-09-16T10:29:02.820Z,11296.00
2022-09-16T10:30:02.887Z,10008.00
2022-09-16T10:31:02.951Z,9472.00
2022-09-16T10:32:03.723Z,9812.00
2022-09-16T10:33:03.798Z,11584.00
2022-09-16T10:34:03.498Z,12880.00
2022-09-16T10:35:03.437Z,12164.00
2022-09-16T10:36:03.701Z,10912.00
2022-09-16T10:37:03.732Z,10784.00
2022-09-16T10:38:03.812Z,15616.00
2022-09-16T10:39:04.730Z,15968.00
2022-09-16T10:40:03.894Z,13244.00
2022-09-16T10:41:03.503Z,12400.00
2022-09-16T10:42:03.948Z,11148.00
2022-09-16T10:43:03.579Z,11596.00
2022-09-16T10:44:03.638Z,12528.00
2022-09-16T10:45:03.652Z,19808.00
2022-09-16T10:46:03.839Z,24640.00
2022-09-16T10:47:03.158Z,12820.00
2022-09-16T10:48:06.458Z,25184.00
2022-09-16T10:49:03.144Z,18592.00
2022-09-16T10:50:02.993Z,9512.00
2022-09-16T10:51:02.962Z,22848.00
2022-09-16T10:52:03.375Z,23680.00
2022-09-16T10:53:03.442Z,24160.00
2022-09-16T10:54:03.461Z,23808.00
2022-09-16T10:55:03.199Z,22656.00
2022-09-16T10:56:03.246Z,24128.00
2022-09-16T10:57:03.912Z,25152.00
2022-09-16T10:58:03.620Z,25216.00
2022-09-16T10:59:03.973Z,26304.00
2022-09-16T11:00:03.579Z,19104.00
2022-09-16T11:01:03.847Z,17728.00
2022-09-16T11:02:03.059Z,25472.00
2022-09-16T11:03:03.447Z,26784.00
2022-09-16T11:04:05.182Z,27264.00
2022-09-16T11:05:02.834Z,27072.00
2022-09-16T11:06:03.330Z,26304.00
2022-09-16T11:07:02.464Z,17312.00
2022-09-16T11:08:02.502Z,23872.00
2022-09-16T11:09:02.544Z,19680.00
2022-09-16T11:10:02.795Z,17760.00
2022-09-16T11:11:02.780Z,11932.00
2022-09-16T11:12:04.452Z,9184.00
2022-09-16T11:13:02.970Z,11908.00
2022-09-16T11:14:03.037Z,11740.00
2022-09-16T11:15:02.675Z,23200.00
2022-09-16T11:16:02.982Z,18976.00
2022-09-16T11:17:03.057Z,16608.00
2022-09-16T11:18:03.245Z,10596.00
2022-09-16T11:19:03.265Z,16864.00
2022-09-16T11:20:03.231Z,17920.00
2022-09-16T11:21:03.293Z,18528.00
2022-09-16T11:22:03.717Z,21824.00
2022-09-16T11:23:03.309Z,13700.00
2022-09-16T11:24:02.831Z,21120.00
2022-09-16T11:25:02.790Z,12736.00
2022-09-16T11:26:03.381Z,8992.00
2022-09-16T11:27:03.131Z,9260.00
2022-09-16T11:28:03.954Z,4340.00
2022-09-16T11:29:03.721Z,4108.00
2022-09-16T11:30:03.708Z,4632.00
2022-09-16T11:31:03.460Z,4584.00
2022-09-16T11:32:03.374Z,4116.00
2022-09-16T11:33:03.461Z,3536.00
2022-09-16T11:34:03.010Z,3268.00
2022-09-16T11:35:02.759Z,3088.00
2022-09-16T11:36:02.633Z,3356.00
2022-09-16T11:37:02.581Z,17120.00
2022-09-16T11:38:03.191Z,16448.00
2022-09-16T11:39:03.295Z,17440.00
2022-09-16T11:40:03.194Z,14748.00
2022-09-16T11:41:03.227Z,17280.00
2022-09-16T11:42:03.272Z,17344.00
2022-09-16T11:43:02.944Z,12692.00
2022-09-16T11:44:03.045Z,16000.00
2022-09-16T11:45:03.075Z,16128.00
2022-09-16T11:46:03.261Z,21376.00
2022-09-16T11:47:03.083Z,21024.00
2022-09-16T11:48:03.122Z,21344.00
2022-09-16T11:49:03.149Z,20512.00
2022-09-16T11:50:02.989Z,22496.00
2022-09-16T11:51:03.083Z,22432.00
2022-09-16T11:52:03.162Z,6996.00
2022-09-16T11:53:05.181Z,18528.00
2022-09-16T11:54:03.461Z,18400.00
2022-09-16T11:55:02.931Z,16384.00
2022-09-16T11:56:02.794Z,18528.00
2022-09-16T11:57:03.186Z,18048.00
2022-09-16T11:58:03.177Z,19264.00
2022-09-16T11:59:03.144Z,22112.00
2022-09-16T12:00:03.014Z,19936.00
2022-09-16T12:01:02.989Z,22816.00
2022-09-16T12:02:03.067Z,21728.00
2022-09-16T12:03:02.992Z,22304.00
2022-09-16T12:04:02.803Z,14816.00
2022-09-16T12:05:02.817Z,17120.00
2022-09-16T12:06:02.841Z,22016.00
2022-09-16T12:07:02.772Z,23456.00
2022-09-16T12:08:02.542Z,22720.00
2022-09-16T12:09:03.776Z,22816.00
2022-09-16T12:10:02.031Z,20096.00
2022-09-16T12:11:02.717Z,22304.00
2022-09-16T12:12:02.483Z,23520.00
2022-09-16T12:13:03.036Z,21280.00
2022-09-16T12:14:06.063Z,13008.00
2022-09-16T12:15:05.677Z,10440.00
2022-09-16T12:16:03.192Z,9676.00
2022-09-16T12:17:03.288Z,8376.00
2022-09-16T12:18:01.903Z,8912.00
2022-09-16T12:19:02.419Z,15776.00
2022-09-16T12:20:02.120Z,17248.00
2022-09-16T12:21:02.054Z,16736.00
2022-09-16T12:22:02.020Z,17216.00
2022-09-16T12:23:02.644Z,9288.00
2022-09-16T12:24:02.657Z,12396.00
2022-09-16T12:25:02.630Z,12676.00
2022-09-16T12:26:02.618Z,13548.00
2022-09-16T12:27:02.641Z,14336.00
2022-09-16T12:28:03.349Z,9060.00
2022-09-16T12:29:03.327Z,16544.00
2022-09-16T12:30:03.185Z,16672.00